createdAt,value
2023-02-02T00:01:35.472Z,1.49
2023-02-02T00:04:38.407Z,1.64
2023-02-02T00:07:40.935Z,1.71
2023-02-02T00:10:44.165Z,1.78
2023-02-02T00:13:46.706Z,1.84
2023-02-02T00:16:51.139Z,1.86
2023-02-02T00:19:54.088Z,1.92
2023-02-02T00:22:57.313Z,1.95
2023-02-02T00:25:59.787Z,1.99
2023-02-02T00:29:03.308Z,2.11
2023-02-02T00:32:06.073Z,2.17
2023-02-02T00:35:10.154Z,2.15
2023-02-02T00:38:12.669Z,2.18
2023-02-02T00:41:15.695Z,2.15
2023-02-02T00:44:36.892Z,2.10
2023-02-02T00:47:39.820Z,2.04
2023-02-02T00:50:42.487Z,2.10
2023-02-02T00:53:45.353Z,2.03
2023-02-02T00:56:47.841Z,2.07
2023-02-02T00:59:50.735Z,2.11
2023-02-02T01:02:55.585Z,2.10
2023-02-02T01:05:58.581Z,2.05
2023-02-02T01:09:01.248Z,2.13
2023-02-02T01:12:04.905Z,2.19
2023-02-02T01:15:07.857Z,2.31
2023-02-02T01:18:10.734Z,2.23
2023-02-02T01:21:14.031Z,2.29
2023-02-02T01:24:16.874Z,2.27
2023-02-02T01:27:19.445Z,2.23
2023-02-02T01:30:22.857Z,2.25
2023-02-02T01:33:25.578Z,2.28
2023-02-02T01:36:28.651Z,2.18
2023-02-02T01:39:32.332Z,2.13
2023-02-02T01:42:36.452Z,2.07
2023-02-02T01:45:38.984Z,2.01
2023-02-02T01:48:48.389Z,2.04
2023-02-02T01:51:54.329Z,2.10
2023-02-02T01:55:08.557Z,2.04
2023-02-02T01:58:15.963Z,1.96
2023-02-02T02:01:19.032Z,1.82
2023-02-02T02:04:22.840Z,1.78
2023-02-02T02:07:25.688Z,1.74
2023-02-02T02:10:28.556Z,1.72
2023-02-02T02:13:50.901Z,1.70
2023-02-02T02:17:10.565Z,1.70
2023-02-02T02:20:54.003Z,1.67
2023-02-02T02:24:46.404Z,1.59
2023-02-02T02:27:59.973Z,1.56
2023-02-02T02:31:25.944Z,1.45
2023-02-02T02:34:36.275Z,1.41
2023-02-02T02:38:10.059Z,1.31
2023-02-02T02:41:26.044Z,1.23
2023-02-02T02:44:29.639Z,1.17
2023-02-02T02:47:32.607Z,1.07
2023-02-02T02:50:35.456Z,1.05
2023-02-02T02:53:38.268Z,1.07
2023-02-02T02:56:52.678Z,1.09
2023-02-02T03:00:17.298Z,1.18
2023-02-02T03:03:42.002Z,1.23
2023-02-02T03:06:53.382Z,1.28
2023-02-02T03:09:58.706Z,1.53
2023-02-02T03:13:01.243Z,1.49
2023-02-02T03:16:04.265Z,1.32
2023-02-02T03:19:07.594Z,1.19
2023-02-02T03:22:10.367Z,1.04
2023-02-02T03:25:13.031Z,1.07
2023-02-02T03:28:16.913Z,0.99
2023-02-02T03:31:20.262Z,1.13
2023-02-02T03:34:23.189Z,1.18
2023-02-02T03:37:26.304Z,1.14
2023-02-02T03:40:29.499Z,1.10
2023-02-02T03:43:32.347Z,1.08
2023-02-02T03:46:35.462Z,1.07
2023-02-02T03:49:38.106Z,0.86
2023-02-02T03:52:41.012Z,0.67
2023-02-02T03:55:43.597Z,0.49
2023-02-02T03:58:47.446Z,0.37
2023-02-02T04:01:50.123Z,0.26
2023-02-02T04:04:52.985Z,0.27
2023-02-02T04:07:55.525Z,0.25
2023-02-02T04:10:59.681Z,0.44
2023-02-02T04:14:02.387Z,0.44
2023-02-02T04:17:05.240Z,0.52
2023-02-02T04:20:08.423Z,0.47
2023-02-02T04:23:11.183Z,0.50
2023-02-02T04:26:13.769Z,0.57
2023-02-02T04:29:16.802Z,0.55
2023-02-02T04:32:19.687Z,0.50
2023-02-02T04:35:22.761Z,0.47
2023-02-02T04:38:25.699Z,0.27
2023-02-02T04:41:28.623Z,0.23
2023-02-02T04:44:31.155Z,0.18
2023-02-02T04:47:33.939Z,-0.02
2023-02-02T04:50:36.557Z,0.05
2023-02-02T04:53:40.161Z,-0.12
2023-02-02T04:56:42.762Z,-0.18
2023-02-02T04:59:45.589Z,-0.24
2023-02-02T05:02:48.234Z,-0.14
2023-02-02T05:05:51.018Z,-0.01
2023-02-02T05:08:53.724Z,0.13
2023-02-02T05:11:56.692Z,0.24
2023-02-02T05:15:01.219Z,0.41
2023-02-02T05:18:04.078Z,0.47
2023-02-02T05:21:07.001Z,0.47
2023-02-02T05:24:10.138Z,0.47
2023-02-02T05:27:12.744Z,0.50
2023-02-02T05:30:16.136Z,0.47
2023-02-02T05:33:19.638Z,0.48
2023-02-02T05:36:22.499Z,0.51
2023-02-02T05:39:25.993Z,0.57
2023-02-02T05:42:28.846Z,0.65
2023-02-02T05:45:31.541Z,0.72
2023-02-02T05:48:34.531Z,0.77
2023-02-02T05:51:46.023Z,0.75
2023-02-02T05:54:48.990Z,0.77
2023-02-02T05:57:51.655Z,0.81
2023-02-02T06:00:56.784Z,0.75
2023-02-02T06:03:59.813Z,0.71
2023-02-02T06:07:02.350Z,0.63
2023-02-02T06:10:05.667Z,0.56
2023-02-02T06:13:08.815Z,0.49
2023-02-02T06:16:11.895Z,0.54
2023-02-02T06:19:14.894Z,0.60
2023-02-02T06:22:17.877Z,0.66
2023-02-02T06:25:20.533Z,0.73
2023-02-02T06:28:23.739Z,0.80
2023-02-02T06:31:27.263Z,0.91
2023-02-02T06:34:30.243Z,0.96
2023-02-02T06:37:34.235Z,1.02
2023-02-02T06:40:37.282Z,1.04
2023-02-02T06:43:40.105Z,1.15
2023-02-02T06:46:43.066Z,1.27
2023-02-02T06:49:45.722Z,1.28
2023-02-02T06:52:49.788Z,1.34
2023-02-02T06:55:56.884Z,1.39
2023-02-02T06:58:59.767Z,1.48
2023-02-02T07:02:02.632Z,1.57
2023-02-02T07:05:06.119Z,1.69
2023-02-02T07:08:08.877Z,1.87
2023-02-02T07:11:15.779Z,2.08
2023-02-02T07:14:18.934Z,2.32
2023-02-02T07:17:21.964Z,2.70
2023-02-02T07:20:24.971Z,3.56
2023-02-02T07:23:28.715Z,4.92
2023-02-02T07:26:31.574Z,6.48
2023-02-02T07:29:34.578Z,7.19
2023-02-02T07:32:37.354Z,9.24
2023-02-02T07:35:40.665Z,9.98
2023-02-02T07:38:44.184Z,8.10
2023-02-02T07:41:47.336Z,6.87
2023-02-02T07:44:50.361Z,6.13
2023-02-02T07:47:57.619Z,6.23
2023-02-02T07:51:05.424Z,5.21
2023-02-02T07:54:09.338Z,4.56
2023-02-02T07:57:13.869Z,4.31
2023-02-02T08:00:17.703Z,4.20
2023-02-02T08:03:21.135Z,3.87
2023-02-02T08:06:29.835Z,3.81
2023-02-02T08:09:33.171Z,3.90
2023-02-02T08:12:35.837Z,3.85
2023-02-02T08:15:38.847Z,4.04
2023-02-02T08:18:42.364Z,4.06
2023-02-02T08:21:45.397Z,3.98
2023-02-02T08:24:48.249Z,4.02
2023-02-02T08:27:55.436Z,4.04
2023-02-02T08:31:08.473Z,4.18
2023-02-02T08:34:14.439Z,4.14
2023-02-02T08:37:17.911Z,4.01
2023-02-02T08:40:21.094Z,4.16
2023-02-02T08:43:23.752Z,6.32
2023-02-02T08:46:26.761Z,7.25
2023-02-02T08:49:29.501Z,6.56
2023-02-02T08:52:32.706Z,6.69
2023-02-02T08:55:35.323Z,8.04
2023-02-02T08:58:38.456Z,8.43
2023-02-02T09:01:41.231Z,8.78
2023-02-02T09:04:45.672Z,8.61
2023-02-02T09:07:49.473Z,8.11
2023-02-02T09:10:52.751Z,7.85
2023-02-02T09:13:57.409Z,7.37
2023-02-02T09:17:00.909Z,6.07
2023-02-02T09:20:04.897Z,6.09
2023-02-02T09:23:08.101Z,6.18
2023-02-02T09:26:17.695Z,6.24
2023-02-02T09:29:22.072Z,5.59
2023-02-02T09:32:25.838Z,5.85
2023-02-02T09:35:29.531Z,5.85
2023-02-02T09:38:32.789Z,5.86
2023-02-02T09:41:39.155Z,5.96
2023-02-02T09:45:04.544Z,5.98
2023-02-02T09:48:25.390Z,6.00
2023-02-02T09:51:33.552Z,5.83
2023-02-02T09:54:42.023Z,5.49
2023-02-02T09:57:51.328Z,5.51
2023-02-02T10:01:00.576Z,5.96
2023-02-02T10:04:18.887Z,6.12
2023-02-02T10:07:27.469Z,5.83
2023-02-02T10:10:35.957Z,5.88
2023-02-02T10:13:39.967Z,5.71
2023-02-02T10:16:43.355Z,5.48
2023-02-02T10:19:46.356Z,5.80
2023-02-02T10:22:50.474Z,5.89
2023-02-02T10:26:00.599Z,5.77
2023-02-02T10:29:23.890Z,5.54
2023-02-02T10:32:56.254Z,5.09
2023-02-02T10:36:23.466Z,4.87
2023-02-02T10:39:50.087Z,5.03
2023-02-02T10:43:38.204Z,5.24
2023-02-02T10:46:47.070Z,5.33
2023-02-02T10:49:56.353Z,5.39
2023-02-02T10:53:03.565Z,5.46
2023-02-02T10:56:11.984Z,5.44
2023-02-02T10:59:23.404Z,5.33
2023-02-02T11:02:26.786Z,5.24
2023-02-02T11:05:49.302Z,5.29
2023-02-02T11:08:58.652Z,5.41
2023-02-02T11:12:05.825Z,5.39
2023-02-02T11:15:25.942Z,5.45
2023-02-02T11:18:30.806Z,5.58
2023-02-02T11:21:34.794Z,5.61
2023-02-02T11:24:46.381Z,5.79
2023-02-02T11:27:49.813Z,6.17
2023-02-02T11:30:53.538Z,6.29
2023-02-02T11:34:09.652Z,6.32
2023-02-02T11:37:13.444Z,6.42
2023-02-02T11:40:38.434Z,6.46
2023-02-02T11:43:48.891Z,6.34
2023-02-02T11:46:52.187Z,6.17
2023-02-02T11:49:55.905Z,6.17
2023-02-02T11:53:01.980Z,6.19
2023-02-02T11:56:08.567Z,6.27
2023-02-02T11:59:47.065Z,6.26
2023-02-02T12:02:49.820Z,6.23
2023-02-02T12:05:52.814Z,6.23
2023-02-02T12:09:01.486Z,6.19
2023-02-02T12:12:16.410Z,6.18
2023-02-02T12:15:51.346Z,6.07
2023-02-02T12:18:57.782Z,6.00
2023-02-02T12:22:38.379Z,5.93
2023-02-02T12:26:14.205Z,6.02
2023-02-02T12:29:41.649Z,6.15
2023-02-02T12:32:44.964Z,6.06
2023-02-02T12:35:50.246Z,5.83
2023-02-02T12:39:14.827Z,5.79
2023-02-02T12:42:36.144Z,5.93
2023-02-02T12:45:51.398Z,5.84
2023-02-02T12:49:16.961Z,5.85
2023-02-02T12:52:45.847Z,5.75
2023-02-02T12:55:55.810Z,5.57
2023-02-02T12:59:18.507Z,5.53
2023-02-02T13:02:33.249Z,5.36
2023-02-02T13:05:46.160Z,5.32
2023-02-02T13:09:01.913Z,5.18
2023-02-02T13:12:10.657Z,5.10
2023-02-02T13:15:17.973Z,5.09
2023-02-02T13:18:25.772Z,5.13
2023-02-02T13:21:30.826Z,5.09
2023-02-02T13:24:37.376Z,4.96
2023-02-02T13:27:40.671Z,5.06
2023-02-02T13:30:47.100Z,4.92
2023-02-02T13:33:56.404Z,4.92
2023-02-02T13:37:37.084Z,4.87
2023-02-02T13:40:41.554Z,4.78
2023-02-02T13:43:57.150Z,4.80
2023-02-02T13:47:11.113Z,4.75
2023-02-02T13:50:17.958Z,4.78
2023-02-02T13:53:34.506Z,4.72
2023-02-02T13:56:46.626Z,4.71
2023-02-02T14:00:04.650Z,4.65
2023-02-02T14:03:32.429Z,4.62
2023-02-02T14:06:56.203Z,4.61
2023-02-02T14:09:58.786Z,4.52
2023-02-02T14:13:41.097Z,4.43
2023-02-02T14:16:49.298Z,4.41
2023-02-02T14:19:52.050Z,4.44
2023-02-02T14:22:54.602Z,4.33
2023-02-02T14:26:09.504Z,4.33
2023-02-02T14:29:39.470Z,4.34
2023-02-02T14:32:42.913Z,4.29
2023-02-02T14:35:45.261Z,4.27
2023-02-02T14:39:04.825Z,4.33
2023-02-02T14:42:38.456Z,4.35
2023-02-02T14:45:45.577Z,4.40
2023-02-02T14:49:07.081Z,4.39
2023-02-02T14:52:21.119Z,4.37
2023-02-02T14:55:24.988Z,4.40
2023-02-02T14:58:30.568Z,4.35
2023-02-02T15:01:35.126Z,4.30
2023-02-02T15:04:38.000Z,4.28
2023-02-02T15:07:52.990Z,4.22
2023-02-02T15:10:57.380Z,4.13
2023-02-02T15:14:07.343Z,3.99
2023-02-02T15:17:38.998Z,3.88
2023-02-02T15:20:45.678Z,3.84
2023-02-02T15:23:48.536Z,3.89
2023-02-02T15:26:52.010Z,3.91
2023-02-02T15:30:04.234Z,3.85
2023-02-02T15:33:18.120Z,3.70
2023-02-02T15:36:23.953Z,3.64
2023-02-02T15:39:42.385Z,3.52
2023-02-02T15:42:55.473Z,3.49
2023-02-02T15:46:04.448Z,3.45
2023-02-02T15:49:35.891Z,3.35
2023-02-02T15:52:46.514Z,3.30
2023-02-02T15:55:49.653Z,3.24
2023-02-02T15:58:54.522Z,3.25
2023-02-02T16:02:06.254Z,3.24
2023-02-02T16:05:34.975Z,3.22
2023-02-02T16:08:39.858Z,3.23
2023-02-02T16:11:43.722Z,3.23
2023-02-02T16:14:51.856Z,3.27
2023-02-02T16:17:58.711Z,3.26
2023-02-02T16:21:05.121Z,3.32
2023-02-02T16:24:12.652Z,3.28
2023-02-02T16:27:19.737Z,3.24
2023-02-02T16:30:31.027Z,3.26
2023-02-02T16:33:39.208Z,3.20
2023-02-02T16:36:42.150Z,3.22
2023-02-02T16:39:44.820Z,3.21
2023-02-02T16:43:04.398Z,3.17
2023-02-02T16:46:12.251Z,3.19
2023-02-02T16:49:22.074Z,3.17
2023-02-02T16:52:25.315Z,3.20
2023-02-02T16:55:43.461Z,3.22
2023-02-02T16:58:57.787Z,3.21
2023-02-02T17:02:31.148Z,3.24
2023-02-02T17:05:51.928Z,3.12
2023-02-02T17:08:54.751Z,3.26
2023-02-02T17:12:01.915Z,3.31
2023-02-02T17:15:17.043Z,3.30
2023-02-02T17:18:19.737Z,3.25
2023-02-02T17:21:24.394Z,3.11
2023-02-02T17:24:27.687Z,2.91
2023-02-02T17:27:33.948Z,2.74
2023-02-02T17:30:37.727Z,2.71
2023-02-02T17:33:45.974Z,2.54
2023-02-02T17:36:48.496Z,2.50
2023-02-02T17:39:51.548Z,2.57
2023-02-02T17:42:54.216Z,2.45
2023-02-02T17:45:57.072Z,2.39
2023-02-02T17:49:00.256Z,2.44
2023-02-02T17:52:03.538Z,2.40
2023-02-02T17:55:13.230Z,2.29
2023-02-02T17:58:17.607Z,2.27
2023-02-02T18:01:20.295Z,2.16
2023-02-02T18:04:24.712Z,2.16
2023-02-02T18:07:27.232Z,2.07
2023-02-02T18:10:30.325Z,1.96
2023-02-02T18:13:33.150Z,1.94
2023-02-02T18:16:36.310Z,1.96
2023-02-02T18:19:39.407Z,1.93
2023-02-02T18:22:48.293Z,1.87
2023-02-02T18:25:52.878Z,1.86
2023-02-02T18:28:56.246Z,1.77
2023-02-02T18:31:59.353Z,1.59
2023-02-02T18:35:02.616Z,1.72
2023-02-02T18:38:05.466Z,1.63
2023-02-02T18:41:08.497Z,1.58
2023-02-02T18:44:11.576Z,1.51
2023-02-02T18:47:14.736Z,1.44
2023-02-02T18:50:17.651Z,1.55
2023-02-02T18:53:21.049Z,1.55
2023-02-02T18:56:23.892Z,1.61
2023-02-02T18:59:28.467Z,1.59
2023-02-02T19:02:31.265Z,1.64
2023-02-02T19:05:52.660Z,1.73
2023-02-02T19:08:55.473Z,1.70
2023-02-02T19:11:59.017Z,1.64
2023-02-02T19:15:01.891Z,1.58
2023-02-02T19:18:24.285Z,1.62
2023-02-02T19:21:30.396Z,1.73
2023-02-02T19:24:39.361Z,1.63
2023-02-02T19:27:42.113Z,1.52
2023-02-02T19:30:45.619Z,1.70
2023-02-02T19:33:50.669Z,1.72
2023-02-02T19:36:53.713Z,1.69
2023-02-02T19:40:19.638Z,1.81
2023-02-02T19:43:27.882Z,1.75
2023-02-02T19:46:31.138Z,1.76
2023-02-02T19:49:36.473Z,1.64
2023-02-02T19:52:39.251Z,1.65
2023-02-02T19:55:44.280Z,1.70
2023-02-02T19:58:47.642Z,1.90
2023-02-02T20:01:50.891Z,2.19
2023-02-02T20:05:12.514Z,2.29
2023-02-02T20:08:39.712Z,2.27
2023-02-02T20:11:46.075Z,2.31
2023-02-02T20:14:48.958Z,2.39
2023-02-02T20:17:54.337Z,2.28
2023-02-02T20:20:57.416Z,2.19
2023-02-02T20:24:00.769Z,2.04
2023-02-02T20:27:32.872Z,2.13
2023-02-02T20:30:35.928Z,2.20
2023-02-02T20:33:42.940Z,2.05
2023-02-02T20:36:46.600Z,1.89
2023-02-02T20:39:57.980Z,1.71
2023-02-02T20:43:00.982Z,1.58
2023-02-02T20:46:03.591Z,1.54
2023-02-02T20:49:06.855Z,1.47
2023-02-02T20:52:12.987Z,1.42
2023-02-02T20:55:16.174Z,1.58
2023-02-02T20:58:21.844Z,1.59
2023-02-02T21:01:26.173Z,1.63
2023-02-02T21:04:29.011Z,1.68
2023-02-02T21:07:31.882Z,1.60
2023-02-02T21:10:34.498Z,1.51
2023-02-02T21:13:37.639Z,1.51
2023-02-02T21:16:40.287Z,1.52
2023-02-02T21:19:43.623Z,1.52
2023-02-02T21:22:46.300Z,1.67
2023-02-02T21:25:49.265Z,1.77
2023-02-02T21:28:52.070Z,1.80
2023-02-02T21:31:58.866Z,1.78
2023-02-02T21:35:01.743Z,1.60
2023-02-02T21:38:10.979Z,1.83
2023-02-02T21:41:15.191Z,1.96
2023-02-02T21:44:20.017Z,2.23
2023-02-02T21:47:28.540Z,2.25
2023-02-02T21:50:37.061Z,2.25
2023-02-02T21:53:39.805Z,2.44
2023-02-02T21:56:42.288Z,2.49
2023-02-02T21:59:46.817Z,2.47
2023-02-02T22:02:51.158Z,2.48
2023-02-02T22:06:02.191Z,2.32
2023-02-02T22:09:15.967Z,2.13
2023-02-02T22:12:20.980Z,1.96
2023-02-02T22:15:27.358Z,1.93
2023-02-02T22:18:30.325Z,1.96
2023-02-02T22:21:32.961Z,1.93
2023-02-02T22:24:36.663Z,2.01
2023-02-02T22:27:46.245Z,1.99
2023-02-02T22:30:53.870Z,2.03
2023-02-02T22:33:56.411Z,2.13
2023-02-02T22:36:59.187Z,2.35
2023-02-02T22:40:01.705Z,2.20
2023-02-02T22:43:06.173Z,2.02
2023-02-02T22:46:08.737Z,2.05
2023-02-02T22:49:11.622Z,1.95
2023-02-02T22:52:14.192Z,1.82
2023-02-02T22:55:17.390Z,1.61
2023-02-02T22:58:20.035Z,1.50
2023-02-02T23:01:22.799Z,1.42
2023-02-02T23:04:25.358Z,1.32
2023-02-02T23:07:28.114Z,1.24
2023-02-02T23:10:35.316Z,1.20
2023-02-02T23:13:38.104Z,1.27
2023-02-02T23:16:40.642Z,1.15
2023-02-02T23:19:43.488Z,1.32
2023-02-02T23:22:46.172Z,1.30
2023-02-02T23:25:48.976Z,1.28
2023-02-02T23:28:51.590Z,1.16
2023-02-02T23:31:54.495Z,1.18
2023-02-02T23:34:57.052Z,1.21
2023-02-02T23:37:59.911Z,1.11
2023-02-02T23:41:02.447Z,0.93
2023-02-02T23:44:05.448Z,0.87
2023-02-02T23:47:08.335Z,0.80
2023-02-02T23:50:11.656Z,0.59
2023-02-02T23:53:14.849Z,0.59
2023-02-02T23:56:17.987Z,0.53
2023-02-02T23:59:20.517Z,0.42
